Eems Servant — PBTI — position and weather

sailwx.info

Track history (hours):
 
Tides and Currents Weather Stations Pressure Air Temp Water Temp Dewpoint Dewpoint Depression Visibility Wind Speed Wind Dir Waves Ship Positions

Eems Servant

Last reported at 2015-Aug-30 03:28 UTC. Time now 2015-Sep-01 01:57 UTC.
Position N 50°56' E 001°20'.

Length 87 m; draft 4.1 m.

Type: Cargo ship. MMSI: 246236000.

Date/timePositionNaut miles runAvg speedWind from/ knotsBaromVisibWave heightAir tempDewpointWater temp
2015-Aug-30 03:28N 50°56' E 001°20'8 9.3
2015-Aug-30 02:33N 51°03' E 001°29'7 7.2
2015-Aug-30 01:33N 51°08' E 001°38'7 6.6
2015-Aug-30 00:33N 51°12' E 001°45'7 6.9
2015-Aug-29 23:33N 51°18' E 001°50'9 8.5
2015-Aug-29 22:33N 51°26' E 001°56'1010.4
2015-Aug-29 21:33N 51°34' E 002°07'1111.4
2015-Aug-29 20:33N 51°42' E 002°20'122 9.4
2015-Aug-29 07:33N 53°15' E 004°29'9 8.8
2015-Aug-29 06:33N 53°24' E 004°34'15 7.6
2015-Aug-29 04:33N 53°32' E 004°56'8 7.7
2015-Aug-29 03:33N 53°35' E 005°08'9 8.6
2015-Aug-29 02:33N 53°38' E 005°22'10 9.8
2015-Aug-29 01:33N 53°41' E 005°37'1010.0
2015-Aug-29 00:32N 53°44' E 005°54'8 8.3
2015-Aug-28 23:31N 53°38' E 006°05'1010.0
2015-Aug-28 22:30N 53°37' E 006°22'9 9.4
2015-Aug-28 21:33N 53°35' E 006°37'9 8.6
2015-Aug-28 20:33N 53°30' E 006°48'8 7.8
2015-Aug-28 19:33N 53°24' E 006°57'5 5.0
2015-Aug-28 18:33N 53°19' E 006°58'1 1.2
2015-Aug-28 17:33N 53°19' E 006°56'0 0.0
2015-Aug-28 16:29N 53°19' E 006°56'0 0.0
2015-Aug-28 15:29N 53°19' E 006°56'0 0.0
2015-Aug-28 14:32N 53°19' E 006°56'0 0.0
2015-Aug-28 13:32N 53°19' E 006°56'0 0.0
2015-Aug-28 12:32N 53°19' E 006°56'0 0.0
2015-Aug-28 11:32N 53°19' E 006°56'0 0.0
2015-Aug-28 10:32N 53°19' E 006°56'0 0.0
2015-Aug-28 09:26N 53°19' E 006°56'0 0.0
2015-Aug-28 08:32N 53°19' E 006°56'0 0.0
2015-Aug-28 07:32N 53°19' E 006°56'0 0.0
2015-Aug-28 06:29N 53°19' E 006°56'0 0.0
2015-Aug-28 05:29N 53°19' E 006°56'0 0.0
2015-Aug-28 04:32N 53°19' E 006°56'0 0.0
2015-Aug-28 03:32N 53°19' E 006°56'0 0.0
2015-Aug-28 02:32N 53°19' E 006°56'0 0.0
2015-Aug-28 01:32N 53°19' E 006°56'0 0.0
2015-Aug-28 00:32N 53°19' E 006°56'0 0.0
2015-Aug-27 23:29N 53°19' E 006°56'0 0.0
2015-Aug-27 22:29N 53°19' E 006°56'0 0.0
2015-Aug-27 21:32N 53°19' E 006°56'0 0.0
2015-Aug-27 20:33N 53°19' E 006°56'1 1.1
2015-Aug-27 19:33N 53°19' E 006°58'5 5.1
2015-Aug-27 18:33N 53°24' E 006°57'1211.7
2015-Aug-27 17:33N 53°33' E 006°43'2711.1
2015-Aug-27 15:05N 53°38' E 005°58'610.9
2015-Aug-27 14:33N 53°37' E 005°48'1110.8
2015-Aug-27 13:33N 53°34' E 005°31'1210.4
2015-Aug-27 12:23N 53°30' E 005°11'8 9.9
2015-Aug-27 11:33N 53°27' E 004°58'16310.1
2015-Aug-26 19:31N 51°21' E 002°11'1010.3
2015-Aug-26 18:33N 51°13' E 002°01'1010.4
2015-Aug-26 17:33N 51°07' E 001°47'10 9.8
2015-Aug-26 16:33N 51°00' E 001°36'107 8.9
2015-Aug-26 04:32N 49°44' W 000°21'9 9.4
2015-Aug-26 03:33N 49°35' W 000°16'9 8.7
2015-Aug-26 02:33N 49°29' W 000°06'10 9.9
2015-Aug-26 01:33N 49°26' E 000°09'1212.1
2015-Aug-26 00:33N 49°28' E 000°27'  
2015-Aug-22 15:13N 49°29' E 000°40'5 7.3
2015-Aug-22 14:33N 49°27' E 000°33'9 9.3
2015-Aug-22 13:33N 49°26' E 000°19'1010.3
2015-Aug-22 12:33N 49°27' E 000°03'9 9.3
2015-Aug-22 11:33N 49°30' W 000°10'10 9.6
2015-Aug-22 10:33N 49°38' W 000°19'66 8.2
2015-Aug-22 02:28N 50°34' E 000°34'8 8.5
2015-Aug-22 01:33N 50°38' E 000°44'9 8.8
2015-Aug-22 00:33N 50°44' E 000°55'2110.2
2015-Aug-21 22:32N 50°57' E 001°21'1111.3
2015-Aug-21 21:33N 51°05' E 001°33'1010.3
2015-Aug-21 20:33N 51°12' E 001°44'9 9.3
2015-Aug-21 19:33N 51°20' E 001°53'8 8.1
2015-Aug-21 18:33N 51°25' E 002°03'10 9.3
2015-Aug-21 17:28N 51°20' E 002°17'15 8.1
2015-Aug-21 15:33N 51°23' E 002°41'9 8.7
2015-Aug-21 14:33N 51°23' E 002°55'19 9.3
2015-Aug-21 12:33N 51°25' E 003°25'9 9.3
2015-Aug-21 11:34N 51°25' E 003°40'11 9.7
2015-Aug-21 10:28N 51°23' E 003°56'7 7.3
2015-Aug-21 09:29N 51°22' E 004°08'6 6.5
2015-Aug-21 08:33N 51°21' E 004°17'1 0.6
2015-Aug-21 07:33N 51°21' E 004°18'0 0.4
2015-Aug-21 06:33N 51°22' E 004°17'0 0.0
2015-Aug-21 04:17N 51°22' E 004°17'0 0.0
2015-Aug-21 03:20N 51°22' E 004°17'0 0.0
2015-Aug-21 02:17N 51°22' E 004°17'0 0.0
2015-Aug-21 01:32N 51°22' E 004°17'0 0.0
2015-Aug-21 00:32N 51°22' E 004°17'0 0.0
2015-Aug-20 23:23N 51°22' E 004°17'0 0.0
2015-Aug-20 22:29N 51°22' E 004°17'0 0.0
2015-Aug-20 21:32N 51°22' E 004°17'0 0.0
2015-Aug-20 20:23N 51°22' E 004°17'0 0.0
2015-Aug-20 18:23N 51°22' E 004°17'0 0.0
2015-Aug-20 17:33N 51°22' E 004°17'0 0.0
2015-Aug-20 16:34N 51°22' E 004°17'0 0.0
2015-Aug-20 15:31N 51°22' E 004°17'0 0.2
2015-Aug-20 14:28N 51°22' E 004°17'0 0.0
2015-Aug-20 13:32N 51°22' E 004°17'0 0.0
2015-Aug-20 12:30N 51°22' E 004°17'0 0.0
2015-Aug-20 11:31N 51°22' E 004°17'0 0.0
2015-Aug-20 09:33N 51°22' E 004°17'0 0.0
2015-Aug-20 08:27N 51°22' E 004°17'0 0.0
2015-Aug-20 06:31N 51°22' E 004°17'0 0.0
2015-Aug-20 05:28N 51°22' E 004°17'0 0.0
2015-Aug-20 04:33N 51°22' E 004°17'0 0.0
2015-Aug-20 03:32N 51°22' E 004°17'  
Track history (hours):
 
Tides and Currents Weather Stations Pressure Air Temp Water Temp Dewpoint Dewpoint Depression Visibility Wind Speed Wind Dir Waves Ship Positions

Eems Servant

Last reported at 2015-Aug-30 03:28 UTC. Time now 2015-Sep-01 01:57 UTC.
Position N 50°56' E 001°20'.

Length 87 m; draft 4.1 m.

Type: Cargo ship. MMSI: 246236000.

Date/timePositionNaut miles runAvg speedWind from/ knotsBaromVisibWave heightAir tempDewpointWater temp
2015-Aug-30 03:28N 50°56' E 001°20'8 9.3
2015-Aug-30 02:33N 51°03' E 001°29'7 7.2
2015-Aug-30 01:33N 51°08' E 001°38'7 6.6
2015-Aug-30 00:33N 51°12' E 001°45'7 6.9
2015-Aug-29 23:33N 51°18' E 001°50'9 8.5
2015-Aug-29 22:33N 51°26' E 001°56'1010.4
2015-Aug-29 21:33N 51°34' E 002°07'1111.4
2015-Aug-29 20:33N 51°42' E 002°20'122 9.4
2015-Aug-29 07:33N 53°15' E 004°29'9 8.8
2015-Aug-29 06:33N 53°24' E 004°34'15 7.6
2015-Aug-29 04:33N 53°32' E 004°56'8 7.7
2015-Aug-29 03:33N 53°35' E 005°08'9 8.6
2015-Aug-29 02:33N 53°38' E 005°22'10 9.8
2015-Aug-29 01:33N 53°41' E 005°37'1010.0
2015-Aug-29 00:32N 53°44' E 005°54'8 8.3
2015-Aug-28 23:31N 53°38' E 006°05'1010.0
2015-Aug-28 22:30N 53°37' E 006°22'9 9.4
2015-Aug-28 21:33N 53°35' E 006°37'9 8.6
2015-Aug-28 20:33N 53°30' E 006°48'8 7.8
2015-Aug-28 19:33N 53°24' E 006°57'5 5.0
2015-Aug-28 18:33N 53°19' E 006°58'1 1.2
2015-Aug-28 17:33N 53°19' E 006°56'0 0.0
2015-Aug-28 16:29N 53°19' E 006°56'0 0.0
2015-Aug-28 15:29N 53°19' E 006°56'0 0.0
2015-Aug-28 14:32N 53°19' E 006°56'0 0.0
2015-Aug-28 13:32N 53°19' E 006°56'0 0.0
2015-Aug-28 12:32N 53°19' E 006°56'0 0.0
2015-Aug-28 11:32N 53°19' E 006°56'0 0.0
2015-Aug-28 10:32N 53°19' E 006°56'0 0.0
2015-Aug-28 09:26N 53°19' E 006°56'0 0.0
2015-Aug-28 08:32N 53°19' E 006°56'0 0.0
2015-Aug-28 07:32N 53°19' E 006°56'0 0.0
2015-Aug-28 06:29N 53°19' E 006°56'0 0.0
2015-Aug-28 05:29N 53°19' E 006°56'0 0.0
2015-Aug-28 04:32N 53°19' E 006°56'0 0.0
2015-Aug-28 03:32N 53°19' E 006°56'0 0.0
2015-Aug-28 02:32N 53°19' E 006°56'0 0.0
2015-Aug-28 01:32N 53°19' E 006°56'0 0.0
2015-Aug-28 00:32N 53°19' E 006°56'0 0.0
2015-Aug-27 23:29N 53°19' E 006°56'0 0.0
2015-Aug-27 22:29N 53°19' E 006°56'0 0.0
2015-Aug-27 21:32N 53°19' E 006°56'0 0.0
2015-Aug-27 20:33N 53°19' E 006°56'1 1.1
2015-Aug-27 19:33N 53°19' E 006°58'5 5.1
2015-Aug-27 18:33N 53°24' E 006°57'1211.7
2015-Aug-27 17:33N 53°33' E 006°43'2711.1
2015-Aug-27 15:05N 53°38' E 005°58'610.9
2015-Aug-27 14:33N 53°37' E 005°48'1110.8
2015-Aug-27 13:33N 53°34' E 005°31'1210.4
2015-Aug-27 12:23N 53°30' E 005°11'8 9.9
2015-Aug-27 11:33N 53°27' E 004°58'16310.1
2015-Aug-26 19:31N 51°21' E 002°11'1010.3
2015-Aug-26 18:33N 51°13' E 002°01'1010.4
2015-Aug-26 17:33N 51°07' E 001°47'10 9.8
2015-Aug-26 16:33N 51°00' E 001°36'107 8.9
2015-Aug-26 04:32N 49°44' W 000°21'9 9.4
2015-Aug-26 03:33N 49°35' W 000°16'9 8.7
2015-Aug-26 02:33N 49°29' W 000°06'10 9.9
2015-Aug-26 01:33N 49°26' E 000°09'1212.1
2015-Aug-26 00:33N 49°28' E 000°27'  
2015-Aug-22 15:13N 49°29' E 000°40'5 7.3
2015-Aug-22 14:33N 49°27' E 000°33'9 9.3
2015-Aug-22 13:33N 49°26' E 000°19'1010.3
2015-Aug-22 12:33N 49°27' E 000°03'9 9.3
2015-Aug-22 11:33N 49°30' W 000°10'10 9.6
2015-Aug-22 10:33N 49°38' W 000°19'66 8.2
2015-Aug-22 02:28N 50°34' E 000°34'8 8.5
2015-Aug-22 01:33N 50°38' E 000°44'9 8.8
2015-Aug-22 00:33N 50°44' E 000°55'2110.2
2015-Aug-21 22:32N 50°57' E 001°21'1111.3
2015-Aug-21 21:33N 51°05' E 001°33'1010.3
2015-Aug-21 20:33N 51°12' E 001°44'9 9.3
2015-Aug-21 19:33N 51°20' E 001°53'8 8.1
2015-Aug-21 18:33N 51°25' E 002°03'10 9.3
2015-Aug-21 17:28N 51°20' E 002°17'15 8.1
2015-Aug-21 15:33N 51°23' E 002°41'9 8.7
2015-Aug-21 14:33N 51°23' E 002°55'19 9.3
2015-Aug-21 12:33N 51°25' E 003°25'9 9.3
2015-Aug-21 11:34N 51°25' E 003°40'11 9.7
2015-Aug-21 10:28N 51°23' E 003°56'7 7.3
2015-Aug-21 09:29N 51°22' E 004°08'6 6.5
2015-Aug-21 08:33N 51°21' E 004°17'1 0.6
2015-Aug-21 07:33N 51°21' E 004°18'0 0.4
2015-Aug-21 06:33N 51°22' E 004°17'0 0.0
2015-Aug-21 04:17N 51°22' E 004°17'0 0.0
2015-Aug-21 03:20N 51°22' E 004°17'0 0.0
2015-Aug-21 02:17N 51°22' E 004°17'0 0.0
2015-Aug-21 01:32N 51°22' E 004°17'0 0.0
2015-Aug-21 00:32N 51°22' E 004°17'0 0.0
2015-Aug-20 23:23N 51°22' E 004°17'0 0.0
2015-Aug-20 22:29N 51°22' E 004°17'0 0.0
2015-Aug-20 21:32N 51°22' E 004°17'0 0.0
2015-Aug-20 20:23N 51°22' E 004°17'0 0.0
2015-Aug-20 18:23N 51°22' E 004°17'0 0.0
2015-Aug-20 17:33N 51°22' E 004°17'0 0.0
2015-Aug-20 16:34N 51°22' E 004°17'0 0.0
2015-Aug-20 15:31N 51°22' E 004°17'0 0.2
2015-Aug-20 14:28N 51°22' E 004°17'0 0.0
2015-Aug-20 13:32N 51°22' E 004°17'0 0.0
2015-Aug-20 12:30N 51°22' E 004°17'0 0.0
2015-Aug-20 11:31N 51°22' E 004°17'0 0.0
2015-Aug-20 09:33N 51°22' E 004°17'0 0.0
2015-Aug-20 08:27N 51°22' E 004°17'0 0.0
2015-Aug-20 06:31N 51°22' E 004°17'0 0.0
2015-Aug-20 05:28N 51°22' E 004°17'0 0.0
2015-Aug-20 04:33N 51°22' E 004°17'0 0.0
2015-Aug-20 03:32N 51°22' E 004°17'  

Dump ship's entire track history